Time;durP1;ratioP1;P1;durP2;ratioP2;P2;SDS_P1;SDS_P2;PMS_P1;PMS_P2;Temp;Humidity;BMP_temperature;BMP_pressure;BME280_temperature;BME280_humidity;BME280_pressure;Samples;Min_cycle;Max_cycle;Signal;HPM_P1;HPM_P2
2022/02/08 00:00:42;;;;;;;16.27;2.75;;;;;;;-149.78;100.00;50412.78;5043047;28;20099;-64
2022/02/08 00:03:09;;;;;;;16.02;2.63;;;;;;;-149.78;100.00;50463.63;5050984;28;20037;-64
2022/02/08 00:05:36;;;;;;;12.18;2.38;;;;;;;-149.78;100.00;50438.19;5041384;28;20124;-64
2022/02/08 00:08:03;;;;;;;12.23;2.97;;;;;;;-149.78;100.00;50432.31;5023251;28;20040;-65
2022/02/08 00:10:30;;;;;;;9.65;2.15;;;;;;;-149.78;100.00;50416.69;5041532;28;20586;-65
2022/02/08 00:12:57;;;;;;;17.00;2.45;;;;;;;-149.78;100.00;50408.84;5041845;28;20033;-65
2022/02/08 00:15:23;;;;;;;16.77;2.72;;;;;;;-149.78;100.00;50420.59;5042112;28;20036;-65
2022/02/08 00:17:49;;;;;;;11.35;2.60;;;;;;;-149.78;100.00;50467.53;5041889;28;20021;-65
2022/02/08 00:20:15;;;;;;;20.08;2.60;;;;;;;-149.78;100.00;50408.84;5042121;28;20731;-65
2022/02/08 00:22:40;;;;;;;15.40;2.20;;;;;;;-149.78;100.00;50463.63;5042150;28;20396;-65
2022/02/08 00:25:07;;;;;;;12.48;2.42;;;;;;;-149.78;100.00;50432.31;5041067;28;20064;-65
2022/02/08 00:27:33;;;;;;;14.25;2.60;;;;;;;-149.78;100.00;50416.69;5042021;28;20039;-65
2022/02/08 00:29:58;;;;;;;13.98;2.55;;;;;;;-149.78;100.00;50416.69;5048478;28;20028;-65
2022/02/08 00:32:24;;;;;;;13.82;3.38;;;;;;;-149.78;100.00;50447.97;5048072;28;20040;-64
2022/02/08 00:34:50;;;;;;;19.23;2.20;;;;;;;-149.78;100.00;50467.53;5048238;28;20041;-65
2022/02/08 00:37:16;;;;;;;15.35;2.33;;;;;;;-149.78;100.00;50440.16;5048300;28;20036;-64
2022/02/08 00:39:43;;;;;;;8.32;2.15;;;;;;;-149.78;100.00;50420.59;5048071;28;20044;-65
2022/02/08 00:42:11;;;;;;;15.27;2.15;;;;;;;-149.78;100.00;50436.25;5048100;28;20044;-65
2022/02/08 00:44:43;;;;;;;16.40;2.28;;;;;;;-149.78;100.00;50440.16;5048895;28;20029;-65
2022/02/08 00:49:41;;;;;;;9.38;1.55;;;;;;;-149.78;100.00;50440.16;5047807;28;20499;-65
2022/02/08 00:52:14;;;;;;;15.18;2.08;;;;;;;-149.78;100.00;50422.56;5047882;28;20028;-65
2022/02/08 00:54:41;;;;;;;8.52;1.77;;;;;;;-149.78;100.00;50432.31;5048504;28;20106;-65
2022/02/08 00:57:08;;;;;;;11.32;2.05;;;;;;;-149.78;100.00;50420.59;5048220;28;20091;-62
2022/02/08 00:59:33;;;;;;;9.07;2.20;;;;;;;-149.78;100.00;50424.50;5048866;28;20052;-62
2022/02/08 01:01:59;;;;;;;14.13;2.13;;;;;;;-149.78;100.00;50420.59;5046889;28;20072;-62
2022/02/08 01:04:26;;;;;;;7.30;1.90;;;;;;;-149.78;100.00;50483.19;5046641;28;20460;-62
2022/02/08 01:06:54;;;;;;;10.23;1.85;;;;;;;-149.78;100.00;50455.81;5047098;28;20033;-62
2022/02/08 01:09:28;;;;;;;11.70;1.67;;;;;;;-149.78;100.00;50465.56;5047534;28;20056;-62
2022/02/08 01:11:55;;;;;;;12.52;2.17;;;;;;;-149.78;100.00;50459.72;5047165;28;20037;-62
2022/02/08 01:14:23;;;;;;;10.93;1.80;;;;;;;-149.78;100.00;50412.78;5047366;28;20029;-62
2022/02/08 01:16:50;;;;;;;9.90;1.88;;;;;;;-149.78;100.00;50455.81;5048125;28;20559;-62
2022/02/08 01:19:19;;;;;;;6.07;1.60;;;;;;;-149.78;100.00;50440.16;5047879;28;20029;-62
2022/02/08 01:21:44;;;;;;;11.10;1.77;;;;;;;-149.78;100.00;50430.38;5044274;28;20033;-62
2022/02/08 01:24:10;;;;;;;7.57;1.40;;;;;;;-149.78;100.00;50440.16;5037573;28;20390;-62
2022/02/08 01:26:45;;;;;;;14.30;2.35;;;;;;;-149.78;100.00;50455.81;5037547;28;20033;-62
2022/02/08 01:29:34;;;;;;;12.15;2.03;;;;;;;-149.78;100.00;50438.19;5042727;28;20119;-62
2022/02/08 01:32:13;;;;;;;10.68;2.20;;;;;;;-149.78;100.00;50406.91;5058607;28;20064;-62
2022/02/08 01:34:54;;;;;;;14.50;2.28;;;;;;;-149.78;100.00;50447.97;5058554;28;20048;-62
2022/02/08 01:37:38;;;;;;;9.57;1.58;;;;;;;-149.78;100.00;50408.84;5058429;28;20075;-62
2022/02/08 01:40:12;;;;;;;10.93;1.60;;;;;;;-149.78;100.00;50451.88;5056919;28;20041;-62
2022/02/08 01:50:30;;;;;;;10.98;2.20;;;;;;;-149.78;100.00;50432.31;5055741;28;20447;-62
2022/02/08 01:52:56;;;;;;;15.02;2.05;;;;;;;-149.78;100.00;50401.03;5055613;28;20030;-62
2022/02/08 01:55:22;;;;;;;12.80;1.80;;;;;;;-149.78;100.00;50404.94;5055437;28;20437;-62
2022/02/08 01:57:48;;;;;;;15.05;1.90;;;;;;;-149.78;100.00;50422.56;5054625;28;20052;-62
2022/02/08 02:00:17;;;;;;;10.90;1.60;;;;;;;-149.78;100.00;50436.25;5055539;28;20377;-62
2022/02/08 02:02:43;;;;;;;8.05;1.58;;;;;;;-149.78;100.00;50416.69;5055018;28;20380;-62
2022/02/08 02:05:08;;;;;;;10.45;2.00;;;;;;;-149.78;100.00;50420.59;5055340;28;20036;-62
2022/02/08 02:07:35;;;;;;;8.60;1.80;;;;;;;-149.78;100.00;50408.84;5055304;28;20043;-62
2022/02/08 02:10:03;;;;;;;18.13;2.15;;;;;;;-149.78;100.00;50436.25;5055226;28;20102;-62
2022/02/08 02:12:29;;;;;;;13.40;1.55;;;;;;;-149.78;100.00;50426.47;5055283;28;20037;-62
2022/02/08 02:14:59;;;;;;;9.30;1.77;;;;;;;-149.78;100.00;50459.72;5055151;28;20439;-62
2022/02/08 02:17:25;;;;;;;11.38;1.98;;;;;;;-149.78;100.00;50436.25;5053531;28;20447;-62
2022/02/08 02:19:52;;;;;;;11.93;2.10;;;;;;;-149.78;100.00;50467.53;5055049;28;20039;-65
2022/02/08 02:22:18;;;;;;;8.95;1.70;;;;;;;-149.78;100.00;50416.69;5047597;28;20043;-65
2022/02/08 02:24:44;;;;;;;10.85;1.77;;;;;;;-149.78;100.00;50457.75;5045292;28;20048;-65
2022/02/08 02:27:11;;;;;;;6.05;1.40;;;;;;;-149.78;100.00;50451.88;5043538;28;20044;-65
2022/02/08 02:29:37;;;;;;;11.52;1.95;;;;;;;-149.78;100.00;50440.16;5043647;28;20032;-65
2022/02/08 02:32:03;;;;;;;13.02;1.75;;;;;;;-149.78;100.00;50440.16;5043225;28;20072;-65
2022/02/08 02:34:29;;;;;;;10.63;2.10;;;;;;;-149.78;100.00;50404.94;5041122;28;20041;-65
2022/02/08 02:36:55;;;;;;;4.80;1.45;;;;;;;-149.78;100.00;50401.03;5043244;28;20036;-65
2022/02/08 02:39:23;;;;;;;10.18;1.85;;;;;;;-149.78;100.00;50447.97;5043548;28;20396;-65
2022/02/08 02:41:50;;;;;;;9.65;1.42;;;;;;;-149.78;100.00;50481.22;5042575;28;20028;-64
2022/02/08 02:44:21;;;;;;;6.03;1.48;;;;;;;-149.78;100.00;50408.84;5043512;28;20441;-65
2022/02/08 02:46:48;;;;;;;11.93;1.83;;;;;;;-149.78;100.00;50406.91;5042050;28;20148;-65
2022/02/08 02:49:14;;;;;;;11.27;1.70;;;;;;;-149.78;100.00;50389.31;5043008;28;20028;-65
2022/02/08 02:51:39;;;;;;;5.82;1.83;;;;;;;-149.78;100.00;50428.41;5041454;28;20037;-65
2022/02/08 02:54:16;;;;;;;10.75;2.53;;;;;;;-149.78;100.00;50422.56;5043367;28;20815;-64
2022/02/08 02:56:43;;;;;;;10.93;1.85;;;;;;;-149.78;100.00;50444.06;5041655;28;20439;-65
2022/02/08 02:59:09;;;;;;;13.20;1.83;;;;;;;-149.78;100.00;50412.78;5041520;28;20468;-62
2022/02/08 03:04:47;;;;;;;5.95;1.45;;;;;;;-149.78;100.00;50440.16;5050393;28;20131;-62
2022/02/08 03:18:36;;;;;;;8.48;1.38;;;;;;;-149.78;100.00;50424.50;5041604;28;20036;-62
2022/02/08 03:20:57;;;;;;;6.75;2.80;;;;;;;-149.78;100.00;50459.72;5039558;28;20061;-62
2022/02/08 03:23:23;;;;;;;5.90;1.60;;;;;;;-149.78;100.00;50404.94;5041460;28;20056;-62
2022/02/08 03:25:48;;;;;;;9.82;1.35;;;;;;;-149.78;100.00;50432.31;5042159;28;20076;-62
2022/02/08 03:28:15;;;;;;;5.10;1.35;;;;;;;-149.78;100.00;50440.16;5043010;28;20120;-62
2022/02/08 03:30:42;;;;;;;8.52;1.60;;;;;;;-149.78;100.00;50436.25;5040002;28;20037;-64
2022/02/08 03:33:11;;;;;;;7.47;1.40;;;;;;;-149.78;100.00;50404.94;5040223;28;20048;-64
2022/02/08 03:35:39;;;;;;;8.18;1.67;;;;;;;-149.78;100.00;50436.25;5041953;28;20033;-65
2022/02/08 03:38:08;;;;;;;13.40;2.08;;;;;;;-149.78;100.00;50420.59;5042498;28;20037;-65
2022/02/08 03:43:13;;;;;;;10.93;1.48;;;;;;;-149.78;100.00;50403.00;5039716;28;20087;-65
2022/02/08 03:45:40;;;;;;;6.95;1.92;;;;;;;-149.78;100.00;50416.69;5041289;28;20037;-65
2022/02/08 03:48:06;;;;;;;4.22;1.50;;;;;;;-149.78;100.00;50440.16;5040082;28;20393;-65
2022/02/08 03:50:32;;;;;;;7.47;2.38;;;;;;;-149.78;100.00;50471.44;5041772;28;20428;-65
2022/02/08 03:52:58;;;;;;;11.82;2.35;;;;;;;-149.78;100.00;50418.63;5041997;28;20042;-65
2022/02/08 03:55:24;;;;;;;9.82;1.98;;;;;;;-149.78;100.00;50428.41;5041959;28;20538;-65
2022/02/08 03:57:49;;;;;;;4.57;1.40;;;;;;;-149.78;100.00;50391.25;5041696;28;20495;-64
2022/02/08 04:00:16;;;;;;;11.07;2.05;;;;;;;-149.78;100.00;50412.78;5041566;28;20037;-65
2022/02/08 04:02:47;;;;;;;7.97;1.77;;;;;;;-149.78;100.00;50389.31;5040264;28;20107;-65
2022/02/08 04:05:25;;;;;;;6.93;1.50;;;;;;;-149.78;100.00;50455.81;5041201;28;20065;-65
2022/02/08 04:07:55;;;;;;;10.48;2.00;;;;;;;-149.78;100.00;50397.13;5041957;28;20029;-65
2022/02/08 04:10:24;;;;;;;7.40;1.75;;;;;;;-149.78;100.00;50467.53;5041802;28;20041;-65
2022/02/08 04:15:39;;;;;;;10.27;1.80;;;;;;;-149.78;100.00;50436.25;5041286;28;20040;-65
2022/02/08 04:42:07;;;;;;;10.98;2.10;;;;;;;-149.78;100.00;50399.09;5041528;28;20030;-65
2022/02/08 04:49:30;;;;;;;10.32;1.85;;;;;;;-149.78;100.00;50459.72;5037583;28;20029;-65
2022/02/08 04:52:01;;;;;;;10.13;1.83;;;;;;;-149.78;100.00;50424.50;5038020;28;20107;-65
2022/02/08 04:54:39;;;;;;;12.23;2.55;;;;;;;-149.78;100.00;50424.50;5040191;28;20033;-62
2022/02/08 05:00:07;;;;;;;8.60;1.92;;;;;;;-149.78;100.00;50420.59;5040610;28;20064;-62
2022/02/08 05:44:46;;;;;;;6.72;1.27;;;;;;;-149.78;100.00;50385.38;5044350;28;20179;-62
2022/02/08 05:47:12;;;;;;;5.63;1.20;;;;;;;-149.78;100.00;50404.94;5044339;28;20390;-61
2022/02/08 05:52:32;;;;;;;6.70;1.30;;;;;;;-149.78;100.00;50428.41;5043321;28;20033;-61
2022/02/08 05:54:55;;;;;;;6.95;1.38;;;;;;;-149.78;100.00;50408.84;5044218;28;20836;-61
2022/02/08 05:57:22;;;;;;;4.32;0.95;;;;;;;-149.78;100.00;50428.41;5045139;28;20552;-62
2022/02/08 05:59:49;;;;;;;11.07;1.42;;;;;;;-149.78;100.00;50406.91;5043503;28;20037;-62
2022/02/08 06:02:15;;;;;;;7.70;1.17;;;;;;;-149.78;100.00;50391.25;5044170;28;20623;-62
2022/02/08 06:04:41;;;;;;;8.23;1.25;;;;;;;-149.78;100.00;50373.66;5041858;28;20036;-61
2022/02/08 06:07:06;;;;;;;2.42;1.10;;;;;;;-149.78;100.00;50395.16;5043402;28;20069;-61
2022/02/08 06:09:32;;;;;;;5.30;1.05;;;;;;;-149.78;100.00;50428.41;5043851;28;20618;-62
2022/02/08 06:11:58;;;;;;;6.60;1.30;;;;;;;-149.78;100.00;50416.69;5043367;28;20143;-62
2022/02/08 06:14:25;;;;;;;6.82;1.25;;;;;;;-149.78;100.00;50410.81;5043470;28;20820;-65
2022/02/08 06:16:52;;;;;;;3.55;1.10;;;;;;;-149.78;100.00;50416.69;5043213;28;20071;-65
2022/02/08 06:19:18;;;;;;;9.35;1.67;;;;;;;-149.78;100.00;50422.56;5042714;28;20032;-65
2022/02/08 06:21:43;;;;;;;5.50;1.13;;;;;;;-149.78;100.00;50416.69;5044680;28;20456;-65
2022/02/08 06:24:09;;;;;;;5.35;1.98;;;;;;;-149.78;100.00;50414.72;5043058;28;20052;-65
2022/02/08 06:26:35;;;;;;;5.25;0.80;;;;;;;-149.78;100.00;50397.13;5041884;28;20039;-65
2022/02/08 06:29:11;;;;;;;5.38;0.90;;;;;;;-149.78;100.00;50404.94;5043114;28;20029;-64
2022/02/08 06:31:36;;;;;;;10.02;1.05;;;;;;;-149.78;100.00;50447.97;5043875;28;20083;-64
2022/02/08 06:34:02;;;;;;;5.65;1.33;;;;;;;-149.78;100.00;50403.00;5044435;28;20064;-65
2022/02/08 06:36:28;;;;;;;3.67;1.02;;;;;;;-149.78;100.00;50406.91;5044130;28;20037;-65
2022/02/08 06:38:54;;;;;;;2.28;0.88;;;;;;;-149.78;100.00;50416.69;5044077;28;20032;-65
2022/02/08 06:41:19;;;;;;;4.32;1.05;;;;;;;-149.78;100.00;50432.31;5044633;28;20040;-65
2022/02/08 06:43:46;;;;;;;5.85;1.25;;;;;;;-149.78;100.00;50420.59;5044254;28;20041;-65
2022/02/08 06:46:11;;;;;;;2.53;0.88;;;;;;;-149.78;100.00;50401.03;5043204;28;20064;-64
2022/02/08 06:48:38;;;;;;;4.68;2.08;;;;;;;-149.78;100.00;50424.50;5042029;28;20039;-65
2022/02/08 06:51:04;;;;;;;6.65;1.05;;;;;;;-149.78;100.00;50436.25;5043766;28;20037;-64
2022/02/08 06:53:30;;;;;;;3.97;1.00;;;;;;;-149.78;100.00;50406.91;5043920;28;20037;-65
2022/02/08 06:55:56;;;;;;;7.53;1.08;;;;;;;-149.78;100.00;50447.97;5043167;28;20040;-64
2022/02/08 06:58:30;;;;;;;2.90;1.05;;;;;;;-149.78;100.00;50440.16;5043818;28;20025;-64
2022/02/08 07:01:01;;;;;;;4.43;0.95;;;;;;;-149.78;100.00;50412.78;5043744;28;20040;-64
2022/02/08 07:03:27;;;;;;;2.83;1.02;;;;;;;-149.78;100.00;50401.03;5043637;28;20040;-64
2022/02/08 07:05:53;;;;;;;4.38;1.02;;;;;;;-149.78;100.00;50408.84;5043438;28;20041;-65
2022/02/08 07:08:20;;;;;;;5.97;1.33;;;;;;;-149.78;100.00;50404.94;5041921;28;20040;-64
2022/02/08 07:10:45;;;;;;;4.65;0.82;;;;;;;-149.78;100.00;50451.88;5040778;28;20072;-64
2022/02/08 07:13:11;;;;;;;5.72;1.00;;;;;;;-149.78;100.00;50463.63;5040725;28;20089;-65
2022/02/08 07:15:37;;;;;;;9.95;1.33;;;;;;;-149.78;100.00;50412.78;5039056;28;20037;-64
2022/02/08 07:18:02;;;;;;;4.63;0.93;;;;;;;-149.78;100.00;50408.84;5041688;28;20045;-64
2022/02/08 07:20:31;;;;;;;5.53;1.15;;;;;;;-149.78;100.00;50440.16;5043279;28;20044;-64
2022/02/08 07:22:57;;;;;;;4.15;1.00;;;;;;;-149.78;100.00;50408.84;5044495;28;20565;-64
2022/02/08 07:25:22;;;;;;;4.55;0.80;;;;;;;-149.78;100.00;50432.31;5042460;28;20053;-61
2022/02/08 07:27:48;;;;;;;6.05;0.93;;;;;;;-149.78;100.00;50420.59;5042200;28;20033;-62
2022/02/08 07:30:33;;;;;;;6.38;0.95;;;;;;;-149.78;100.00;50401.03;5041551;28;20051;-62
2022/02/08 07:33:07;;;;;;;9.68;1.80;;;;;;;-149.78;100.00;50397.13;5042872;28;20143;-61
2022/02/08 07:35:47;;;;;;;8.02;1.25;;;;;;;-149.78;100.00;50432.31;5040178;28;20488;-61
2022/02/08 07:38:22;;;;;;;8.80;1.40;;;;;;;-149.78;100.00;50430.38;5041845;28;20043;-62
2022/02/08 07:43:18;;;;;;;7.18;1.17;;;;;;;-149.78;100.00;50404.94;5041674;28;20056;-61
2022/02/08 07:45:44;;;;;;;6.63;1.17;;;;;;;-149.78;100.00;50418.63;5042902;28;20028;-61
2022/02/08 07:48:10;;;;;;;3.15;1.30;;;;;;;-149.78;100.00;50397.13;5042811;28;20033;-61
2022/02/08 07:50:39;;;;;;;6.72;1.10;;;;;;;-149.78;100.00;50406.91;5039129;28;20041;-63
2022/02/08 07:53:13;;;;;;;3.92;1.10;;;;;;;-149.78;100.00;50410.81;5039839;28;20060;-63
2022/02/08 07:55:40;;;;;;;8.00;1.48;;;;;;;-149.78;100.00;50397.13;5038537;28;20408;-63
2022/02/08 07:58:07;;;;;;;5.70;1.48;;;;;;;-149.78;100.00;50424.50;5039290;28;20033;-64
2022/02/08 08:00:32;;;;;;;5.50;1.70;;;;;;;-149.78;100.00;50440.16;5040657;28;20028;-64
2022/02/08 08:02:58;;;;;;;5.55;1.50;;;;;;;-149.78;100.00;50422.56;5039178;28;20767;-63
2022/02/08 08:05:26;;;;;;;9.38;1.33;;;;;;;-149.78;100.00;50440.16;5037533;28;20072;-64
2022/02/08 08:07:52;;;;;;;4.47;1.30;;;;;;;-149.78;100.00;50412.78;5035736;28;20045;-64
2022/02/08 08:10:20;;;;;;;5.88;1.30;;;;;;;-149.78;100.00;50420.59;5037635;28;20040;-63
2022/02/08 08:12:52;;;;;;;7.90;1.20;;;;;;;-149.78;100.00;50406.91;5036974;28;20129;-63
2022/02/08 08:18:14;;;;;;;10.13;3.00;;;;;;;-149.78;100.00;50397.13;5035851;28;20078;-64
2022/02/08 08:20:39;;;;;;;7.25;1.23;;;;;;;-149.78;100.00;50432.31;5035311;28;20036;-63
2022/02/08 08:23:05;;;;;;;7.50;1.10;;;;;;;-149.78;100.00;50399.09;5035018;28;20643;-63
2022/02/08 08:25:31;;;;;;;4.78;1.20;;;;;;;-149.78;100.00;50420.59;5037378;28;20047;-63
2022/02/08 08:27:56;;;;;;;8.50;1.48;;;;;;;-149.78;100.00;50385.38;5037176;28;20553;-63
2022/02/08 08:30:22;;;;;;;4.03;1.30;;;;;;;-149.78;100.00;50393.22;5038078;28;20522;-64
2022/02/08 08:32:47;;;;;;;6.55;1.10;;;;;;;-149.78;100.00;50408.84;5037735;28;20037;-64
2022/02/08 08:35:19;;;;;;;4.43;1.02;;;;;;;-149.78;100.00;50436.25;5038814;28;21285;-63
2022/02/08 08:37:46;;;;;;;4.72;0.90;;;;;;;-149.78;100.00;50447.97;5040807;28;20033;-63
2022/02/08 08:40:35;;;;;;;3.80;0.98;;;;;;;-149.78;100.00;50377.56;5041112;28;20056;-63
2022/02/08 08:51:18;;;;;;;4.80;1.60;;;;;;;-149.78;100.00;50387.34;5059461;28;20047;-63
2022/02/08 08:53:44;;;;;;;10.43;1.75;;;;;;;-149.78;100.00;50436.25;5048404;28;20123;-63
2022/02/08 08:56:10;;;;;;;9.02;2.67;;;;;;;-149.78;100.00;50395.16;5067358;28;20037;-63
2022/02/08 08:58:38;;;;;;;7.28;1.40;;;;;;;-149.78;100.00;50408.84;5069821;28;20048;-63
2022/02/08 09:01:04;;;;;;;4.97;1.20;;;;;;;-149.78;100.00;50412.78;5060139;28;20037;-63
2022/02/08 09:03:30;;;;;;;12.18;1.80;;;;;;;-149.78;100.00;50420.59;5072656;28;20495;-63
2022/02/08 09:05:56;;;;;;;15.88;2.42;;;;;;;-149.78;100.00;50385.38;5064222;28;20040;-63
2022/02/08 09:08:28;;;;;;;7.28;1.60;;;;;;;-149.78;100.00;50401.03;5065203;28;20033;-63
2022/02/08 09:11:02;;;;;;;10.93;2.13;;;;;;;-149.78;100.00;50385.38;5072050;28;20388;-64
2022/02/08 09:13:40;;;;;;;5.72;1.85;;;;;;;-149.78;100.00;50404.94;5044116;28;20075;-64
2022/02/08 09:16:23;;;;;;;11.45;1.90;;;;;;;-149.78;100.00;50403.00;5067429;28;20123;-64
2022/02/08 09:29:37;;;;;;;10.98;2.03;;;;;;;-149.78;100.00;50377.56;5037667;28;20385;-63
2022/02/08 09:32:13;;;;;;;13.98;2.00;;;;;;;-149.78;100.00;50397.13;5045308;28;20477;-63
2022/02/08 09:34:43;;;;;;;7.90;1.50;;;;;;;-149.78;100.00;50381.47;5049098;28;20038;-64
2022/02/08 09:37:12;;;;;;;10.02;1.55;;;;;;;-149.78;100.00;50408.84;5038272;28;20040;-63
2022/02/08 09:39:40;;;;;;;16.88;3.63;;;;;;;-149.78;100.00;50432.31;5056740;28;20028;-64
2022/02/08 09:42:07;;;;;;;12.27;2.20;;;;;;;-149.78;100.00;50401.03;5047894;28;20033;-64
2022/02/08 09:44:37;;;;;;;6.93;1.40;;;;;;;-149.78;100.00;50385.38;5073069;28;20033;-64
2022/02/08 09:47:11;;;;;;;9.27;1.60;;;;;;;-149.78;100.00;50412.78;5046265;28;20159;-64
2022/02/08 09:49:41;;;;;;;13.18;1.48;;;;;;;-149.78;100.00;50403.00;5046452;28;20063;-64
2022/02/08 09:52:08;;;;;;;9.25;1.55;;;;;;;-149.78;100.00;50397.13;5040166;28;20041;-64
2022/02/08 09:54:34;;;;;;;10.43;1.70;;;;;;;-149.78;100.00;50397.13;5046647;28;20029;-64
2022/02/08 09:57:00;;;;;;;6.38;1.00;;;;;;;-149.78;100.00;50393.22;5046518;28;20380;-64
2022/02/08 09:59:26;;;;;;;4.80;1.15;;;;;;;-149.78;100.00;50389.31;5057165;28;20051;-64
2022/02/08 10:01:54;;;;;;;6.05;1.20;;;;;;;-149.78;100.00;50422.56;5069903;28;20452;-64
2022/02/08 10:04:19;;;;;;;1.55;0.65;;;;;;;-149.78;100.00;50408.84;5053899;28;20040;-64
2022/02/08 10:06:45;;;;;;;5.97;1.10;;;;;;;-149.78;100.00;50401.03;5052579;28;20099;-64
2022/02/08 10:09:10;;;;;;;6.63;1.92;;;;;;;-149.78;100.00;50412.78;5051361;28;20116;-64
2022/02/08 10:11:55;;;;;;;3.92;1.02;;;;;;;-149.78;100.00;50432.31;5059877;28;20036;-64
2022/02/08 10:14:28;;;;;;;3.58;0.90;;;;;;;-149.78;100.00;50354.09;5049242;28;20037;-64
2022/02/08 10:22:16;;;;;;;2.17;0.70;;;;;;;-149.78;100.00;50418.63;5043741;28;20098;-64
2022/02/08 10:24:49;;;;;;;3.85;0.88;;;;;;;-149.78;100.00;50397.13;5044466;28;20476;-64
2022/02/08 10:27:30;;;;;;;1.77;1.10;;;;;;;-149.78;100.00;50397.13;5050274;28;20040;-64
2022/02/08 10:30:16;;;;;;;5.00;0.88;;;;;;;-149.78;100.00;50418.63;5066466;28;20033;-64
2022/02/08 10:38:17;;;;;;;1.85;0.80;;;;;;;-149.78;100.00;50377.56;5038082;28;20056;-64
2022/02/08 10:40:42;;;;;;;6.82;0.60;;;;;;;-149.78;100.00;50369.75;5040181;28;20476;-64
2022/02/08 10:43:15;;;;;;;3.85;0.95;;;;;;;-149.78;100.00;50369.75;5037893;28;20038;-64
2022/02/08 10:45:42;;;;;;;4.25;0.88;;;;;;;-149.78;100.00;50377.56;5052734;28;20369;-64
2022/02/08 10:48:22;;;;;;;4.03;0.80;;;;;;;-149.78;100.00;50381.47;5065078;28;20040;-64
2022/02/08 10:50:57;;;;;;;2.70;0.80;;;;;;;-149.78;100.00;50381.47;5061383;28;20044;-64
2022/02/08 10:53:26;;;;;;;1.48;0.63;;;;;;;-149.78;100.00;50391.25;5057067;28;20063;-64
2022/02/08 11:01:05;;;;;;;3.75;0.90;;;;;;;-149.78;100.00;50389.31;5055186;28;20044;-64
2022/02/08 11:03:49;;;;;;;2.50;0.80;;;;;;;-149.78;100.00;50361.91;5057948;28;20033;-64
2022/02/08 11:06:33;;;;;;;2.28;0.77;;;;;;;-149.78;100.00;50358.00;5063884;28;20124;-64
2022/02/08 11:09:17;;;;;;;1.80;0.82;;;;;;;-149.78;100.00;50346.28;5037847;28;20045;-64
2022/02/08 11:14:42;;;;;;;2.17;1.02;;;;;;;-149.78;100.00;50373.66;5039863;28;20116;-64
2022/02/08 11:22:36;;;;;;;0.95;0.38;;;;;;;-149.78;100.00;50393.22;5037874;28;20029;-63
2022/02/08 11:25:20;;;;;;;3.10;0.73;;;;;;;-149.78;100.00;50346.28;5045472;28;20056;-63
2022/02/08 11:28:03;;;;;;;1.58;0.50;;;;;;;-149.78;100.00;50361.91;5038794;28;20033;-63
2022/02/08 11:30:38;;;;;;;2.55;0.50;;;;;;;-149.78;100.00;50381.47;5065899;28;20040;-63
2022/02/08 11:47:25;;;;;;;1.30;0.40;;;;;;;-149.78;100.00;50377.56;5046646;28;20039;-63
2022/02/08 12:00:21;;;;;;;0.80;0.70;;;;;;;-149.78;100.00;50365.84;5057135;28;20112;-63
2022/02/08 12:03:15;;;;;;;2.75;0.70;;;;;;;-149.78;100.00;50350.19;5052121;28;20425;-64
2022/02/08 12:05:48;;;;;;;3.27;0.60;;;;;;;-149.78;100.00;50375.63;5043184;28;20035;-64
2022/02/08 12:08:15;;;;;;;2.53;0.90;;;;;;;-149.78;100.00;50342.38;5063385;28;20037;-63
2022/02/08 12:10:56;;;;;;;1.83;0.50;;;;;;;-149.78;100.00;50311.06;5065886;28;20051;-63
2022/02/08 12:35:42;;;;;;;3.35;0.70;;;;;;;-149.78;100.00;50322.81;5067436;28;20384;-63
2022/02/08 13:03:06;;;;;;;1.38;0.50;;;;;;;-149.78;100.00;50314.97;5058134;28;20473;-62
2022/02/08 14:03:12;;;;;;;0.52;0.50;;;;;;;-149.78;100.00;50359.97;5045777;28;20507;-63
2022/02/08 14:31:55;;;;;;;3.75;1.10;;;;;;;-149.78;100.00;50397.13;5055312;28;20040;-62
2022/02/08 15:06:33;;;;;;;6.63;1.00;;;;;;;-149.78;100.00;50381.47;5045830;28;20055;-64
2022/02/08 15:08:56;;;;;;;5.15;0.90;;;;;;;-149.78;100.00;50354.09;5047982;28;20132;-65
2022/02/08 15:11:29;;;;;;;4.22;1.02;;;;;;;-149.78;100.00;50361.91;5047967;28;20091;-64
2022/02/08 15:13:58;;;;;;;3.05;0.80;;;;;;;-149.78;100.00;50350.19;5045696;28;20036;-64
2022/02/08 15:16:30;;;;;;;5.75;0.93;;;;;;;-149.78;100.00;50381.47;5038289;28;20041;-64
2022/02/08 15:18:56;;;;;;;1.20;0.80;;;;;;;-149.78;100.00;50356.06;5047300;28;20606;-64
2022/02/08 15:21:29;;;;;;;3.58;1.30;;;;;;;-149.78;100.00;50354.09;5043195;28;20033;-64
2022/02/08 15:23:54;;;;;;;3.08;1.20;;;;;;;-149.78;100.00;50361.91;5063431;28;20049;-64
2022/02/08 15:26:21;;;;;;;6.55;1.13;;;;;;;-149.78;100.00;50385.38;5043732;28;20124;-64
2022/02/08 15:28:47;;;;;;;2.75;0.93;;;;;;;-149.78;100.00;50385.38;5065937;28;20112;-64
2022/02/08 15:31:12;;;;;;;4.55;0.90;;;;;;;-149.78;100.00;50373.66;5056931;28;20553;-64
2022/02/08 15:33:38;;;;;;;3.70;1.15;;;;;;;-149.78;100.00;50365.84;5052305;28;20061;-64
2022/02/08 15:36:04;;;;;;;5.18;0.90;;;;;;;-149.78;100.00;50375.63;5044845;28;20048;-64
2022/02/08 15:38:33;;;;;;;6.07;1.27;;;;;;;-149.78;100.00;50350.19;5046663;28;20120;-64
2022/02/08 15:41:00;;;;;;;2.97;1.02;;;;;;;-149.78;100.00;50356.06;5047627;28;20069;-64
2022/02/08 15:43:27;;;;;;;3.05;1.10;;;;;;;-149.78;100.00;50395.16;5045410;28;20438;-64
2022/02/08 15:45:55;;;;;;;8.20;1.25;;;;;;;-149.78;100.00;50391.25;5064219;28;20029;-64
2022/02/08 15:48:23;;;;;;;11.25;1.35;;;;;;;-149.78;100.00;50381.47;5039495;28;20034;-64
2022/02/08 15:51:04;;;;;;;3.13;1.35;;;;;;;-149.78;100.00;50393.22;5036495;28;20072;-64
2022/02/08 16:00:19;;;;;;;8.38;1.60;;;;;;;-149.78;100.00;50401.03;5042643;28;20100;-64
2022/02/08 16:16:54;;;;;;;5.43;1.92;;;;;;;-149.78;100.00;50401.03;5035144;28;20037;-63
2022/02/08 16:19:45;;;;;;;7.55;2.13;;;;;;;-149.78;100.00;50389.31;5036368;28;20033;-64
2022/02/08 16:24:54;;;;;;;10.57;1.98;;;;;;;-149.78;100.00;50397.13;5040172;28;20057;-63
2022/02/08 16:49:09;;;;;;;5.88;1.40;;;;;;;-149.78;100.00;50393.22;5035709;28;20041;-63
2022/02/08 16:54:30;;;;;;;6.25;1.60;;;;;;;-149.78;100.00;50373.66;5040466;28;20041;-63
2022/02/08 16:57:09;;;;;;;;;;;;;;;-149.78;100.00;50385.38;5045257;28;20136;-63
2022/02/08 16:59:37;;;;;;;4.97;1.30;;;;;;;-149.78;100.00;50363.88;5044256;28;20386;-63
2022/02/08 17:02:06;;;;;;;5.18;1.33;;;;;;;-149.78;100.00;50410.81;5042640;28;20064;-63
2022/02/08 17:04:32;;;;;;;2.63;0.93;;;;;;;-149.78;100.00;50381.47;5040150;28;20029;-63
2022/02/08 17:06:59;;;;;;;4.38;1.20;;;;;;;-149.78;100.00;50377.56;5040644;28;20037;-63
2022/02/08 17:09:47;;;;;;;6.30;1.40;;;;;;;-149.78;100.00;50408.84;5045503;28;20033;-62
2022/02/08 17:12:22;;;;;;;7.07;2.08;;;;;;;-149.78;100.00;50377.56;5037440;28;20046;-63
2022/02/08 17:47:14;;;;;;;8.80;1.42;;;;;;;-149.78;100.00;50385.38;5049889;28;20450;-63
2022/02/08 17:49:40;;;;;;;11.35;1.95;;;;;;;-149.78;100.00;50385.38;5044956;28;20041;-63
2022/02/08 17:52:06;;;;;;;4.75;1.35;;;;;;;-149.78;100.00;50416.69;5042957;28;20476;-62
2022/02/08 17:54:32;;;;;;;3.83;1.30;;;;;;;-149.78;100.00;50401.03;5033342;28;20026;-63
2022/02/08 17:56:57;;;;;;;2.03;1.33;;;;;;;-149.78;100.00;50389.31;5043712;28;20048;-63
2022/02/08 17:59:24;;;;;;;4.72;1.88;;;;;;;-149.78;100.00;50393.22;5045076;28;20031;-63
2022/02/08 18:01:51;;;;;;;6.38;1.83;;;;;;;-149.78;100.00;50420.59;5037862;28;20038;-63
2022/02/08 18:04:17;;;;;;;3.67;1.27;;;;;;;-149.78;100.00;50383.44;5044911;28;20143;-64
2022/02/08 18:06:43;;;;;;;6.72;2.15;;;;;;;-149.78;100.00;50412.78;5053551;28;20114;-63
2022/02/08 18:09:09;;;;;;;7.60;2.10;;;;;;;-149.78;100.00;50397.13;5052289;28;20064;-63
2022/02/08 18:11:40;;;;;;;9.95;2.08;;;;;;;-149.78;100.00;50391.25;5067670;28;20044;-63
2022/02/08 18:14:09;;;;;;;6.93;2.42;;;;;;;-149.78;100.00;50399.09;5059343;28;20472;-63
2022/02/08 18:16:36;;;;;;;6.20;2.53;;;;;;;-149.78;100.00;50385.38;5056340;28;20468;-63
2022/02/08 18:19:11;;;;;;;7.47;4.10;;;;;;;-149.78;100.00;50389.31;5052036;28;20040;-63